sensor_id;sensor_type;location;lat;lon;timestamp;pressure;altitude;pressure_sealevel;temperature;humidity
29825;BME280;16713;52.916;12.834;2023-10-09T00:01:04;101662.88;;;11.79;72.10
29825;BME280;16713;52.916;12.834;2023-10-09T00:03:36;101647.16;;;11.67;72.66
29825;BME280;16713;52.916;12.834;2023-10-09T00:06:04;101640.38;;;11.65;73.14
29825;BME280;16713;52.916;12.834;2023-10-09T00:08:31;101628.38;;;11.69;73.80
29825;BME280;16713;52.916;12.834;2023-10-09T00:10:59;101636.38;;;11.62;73.30
29825;BME280;16713;52.916;12.834;2023-10-09T00:13:40;101630.06;;;11.62;74.25
29825;BME280;16713;52.916;12.834;2023-10-09T00:16:16;101615.75;;;11.68;73.91
29825;BME280;16713;52.916;12.834;2023-10-09T00:18:42;101621.50;;;11.75;73.54
29825;BME280;16713;52.916;12.834;2023-10-09T00:21:19;101617.81;;;11.71;73.82
29825;BME280;16713;52.916;12.834;2023-10-09T00:23:49;101613.47;;;11.70;73.75
29825;BME280;16713;52.916;12.834;2023-10-09T00:26:21;101607.53;;;11.68;73.54
29825;BME280;16713;52.916;12.834;2023-10-09T00:28:49;101587.38;;;11.64;73.27
29825;BME280;16713;52.916;12.834;2023-10-09T00:31:17;101587.72;;;11.63;73.58
29825;BME280;16713;52.916;12.834;2023-10-09T00:33:56;101574.06;;;11.66;73.48
29825;BME280;16713;52.916;12.834;2023-10-09T00:36:22;101575.34;;;11.69;73.13
29825;BME280;16713;52.916;12.834;2023-10-09T00:38:54;101572.81;;;11.64;72.81
29825;BME280;16713;52.916;12.834;2023-10-09T00:41:21;101573.41;;;11.69;73.33
29825;BME280;16713;52.916;12.834;2023-10-09T00:43:51;101566.66;;;11.67;73.18
29825;BME280;16713;52.916;12.834;2023-10-09T00:46:20;101559.22;;;11.67;73.21
29825;BME280;16713;52.916;12.834;2023-10-09T00:48:48;101560.69;;;11.65;73.50
29825;BME280;16713;52.916;12.834;2023-10-09T00:51:15;101548.56;;;11.66;73.61
29825;BME280;16713;52.916;12.834;2023-10-09T00:53:46;101538.34;;;11.66;73.42
29825;BME280;16713;52.916;12.834;2023-10-09T00:56:22;101531.13;;;11.62;74.45
29825;BME280;16713;52.916;12.834;2023-10-09T00:58:56;101526.78;;;11.61;73.89
29825;BME280;16713;52.916;12.834;2023-10-09T01:01:41;101518.56;;;11.61;74.33
29825;BME280;16713;52.916;12.834;2023-10-09T01:04:23;101519.13;;;11.66;74.01
29825;BME280;16713;52.916;12.834;2023-10-09T01:06:52;101511.69;;;11.67;74.62
29825;BME280;16713;52.916;12.834;2023-10-09T01:09:36;101501.03;;;11.65;74.23
29825;BME280;16713;52.916;12.834;2023-10-09T01:12:09;101488.44;;;11.64;74.69
29825;BME280;16713;52.916;12.834;2023-10-09T01:14:43;101477.56;;;11.68;74.32
29825;BME280;16713;52.916;12.834;2023-10-09T01:17:10;101463.38;;;11.66;74.36
29825;BME280;16713;52.916;12.834;2023-10-09T01:19:37;101457.88;;;11.66;74.91
29825;BME280;16713;52.916;12.834;2023-10-09T01:22:04;101451.22;;;11.67;74.14
29825;BME280;16713;52.916;12.834;2023-10-09T01:24:39;101446.19;;;11.69;75.27
29825;BME280;16713;52.916;12.834;2023-10-09T01:27:06;101442.97;;;11.67;74.35
29825;BME280;16713;52.916;12.834;2023-10-09T01:29:41;101437.50;;;11.67;74.37
29825;BME280;16713;52.916;12.834;2023-10-09T01:32:13;101425.81;;;11.70;74.25
29825;BME280;16713;52.916;12.834;2023-10-09T01:34:46;101426.28;;;11.72;74.88
29825;BME280;16713;52.916;12.834;2023-10-09T01:37:19;101433.34;;;11.73;74.33
29825;BME280;16713;52.916;12.834;2023-10-09T01:39:50;101436.91;;;11.73;74.15
29825;BME280;16713;52.916;12.834;2023-10-09T01:42:17;101438.31;;;11.67;74.31
29825;BME280;16713;52.916;12.834;2023-10-09T01:45:10;101428.66;;;11.73;74.30
29825;BME280;16713;52.916;12.834;2023-10-09T01:47:42;101420.88;;;11.75;74.73
29825;BME280;16713;52.916;12.834;2023-10-09T01:50:18;101425.34;;;11.68;75.21
29825;BME280;16713;52.916;12.834;2023-10-09T01:52:46;101431.75;;;11.72;74.62
29825;BME280;16713;52.916;12.834;2023-10-09T01:55:15;101426.28;;;11.72;75.07
29825;BME280;16713;52.916;12.834;2023-10-09T01:57:56;101423.97;;;11.74;74.82
29825;BME280;16713;52.916;12.834;2023-10-09T02:00:40;101430.19;;;11.71;75.01
29825;BME280;16713;52.916;12.834;2023-10-09T02:03:15;101414.59;;;11.75;74.53
29825;BME280;16713;52.916;12.834;2023-10-09T02:05:42;101422.00;;;11.74;74.82
29825;BME280;16713;52.916;12.834;2023-10-09T02:08:09;101427.84;;;11.73;74.83
29825;BME280;16713;52.916;12.834;2023-10-09T02:10:36;101419.97;;;11.71;74.88
29825;BME280;16713;52.916;12.834;2023-10-09T02:13:07;101428.78;;;11.77;75.03
29825;BME280;16713;52.916;12.834;2023-10-09T02:15:35;101429.47;;;11.74;75.03
29825;BME280;16713;52.916;12.834;2023-10-09T02:18:20;101418.50;;;11.74;75.24
29825;BME280;16713;52.916;12.834;2023-10-09T02:23:26;101397.63;;;11.73;75.31
29825;BME280;16713;52.916;12.834;2023-10-09T02:26:03;101392.72;;;11.78;75.02
29825;BME280;16713;52.916;12.834;2023-10-09T02:28:31;101381.59;;;11.75;75.08
29825;BME280;16713;52.916;12.834;2023-10-09T02:31:00;101375.78;;;11.64;75.12
29825;BME280;16713;52.916;12.834;2023-10-09T02:33:39;101378.88;;;11.63;75.94
29825;BME280;16713;52.916;12.834;2023-10-09T02:36:06;101369.50;;;11.64;75.07
29825;BME280;16713;52.916;12.834;2023-10-09T02:38:33;101371.88;;;11.65;75.22
29825;BME280;16713;52.916;12.834;2023-10-09T02:41:02;101367.97;;;11.66;76.07
29825;BME280;16713;52.916;12.834;2023-10-09T02:43:32;101363.06;;;11.60;75.12
29825;BME280;16713;52.916;12.834;2023-10-09T02:46:01;101358.72;;;11.59;75.19
29825;BME280;16713;52.916;12.834;2023-10-09T02:48:39;101359.38;;;11.56;75.99
29825;BME280;16713;52.916;12.834;2023-10-09T02:51:17;101352.53;;;11.62;75.67
29825;BME280;16713;52.916;12.834;2023-10-09T02:53:59;101343.59;;;11.65;76.72
29825;BME280;16713;52.916;12.834;2023-10-09T02:56:34;101340.84;;;11.65;75.86
29825;BME280;16713;52.916;12.834;2023-10-09T02:59:24;101343.59;;;11.65;75.78
29825;BME280;16713;52.916;12.834;2023-10-09T03:01:50;101331.91;;;11.68;75.54
29825;BME280;16713;52.916;12.834;2023-10-09T03:04:19;101320.91;;;11.68;75.71
29825;BME280;16713;52.916;12.834;2023-10-09T03:06:46;101317.63;;;11.62;75.93
29825;BME280;16713;52.916;12.834;2023-10-09T03:09:19;101317.50;;;11.71;75.75
29825;BME280;16713;52.916;12.834;2023-10-09T03:11:56;101314.75;;;11.71;75.83
29825;BME280;16713;52.916;12.834;2023-10-09T03:14:29;101295.06;;;11.69;75.66
29825;BME280;16713;52.916;12.834;2023-10-09T03:16:57;101272.38;;;11.72;75.74
29825;BME280;16713;52.916;12.834;2023-10-09T03:19:25;101255.53;;;11.73;75.71
29825;BME280;16713;52.916;12.834;2023-10-09T03:21:51;101251.56;;;11.71;75.75
29825;BME280;16713;52.916;12.834;2023-10-09T03:24:17;101246.47;;;11.73;75.70
29825;BME280;16713;52.916;12.834;2023-10-09T03:26:46;101264.47;;;11.70;75.52
29825;BME280;16713;52.916;12.834;2023-10-09T03:29:12;101257.13;;;11.74;76.27
29825;BME280;16713;52.916;12.834;2023-10-09T03:31:38;101274.06;;;11.76;75.95
29825;BME280;16713;52.916;12.834;2023-10-09T03:34:05;101299.16;;;11.75;75.31
29825;BME280;16713;52.916;12.834;2023-10-09T03:36:34;101314.06;;;11.74;74.86
29825;BME280;16713;52.916;12.834;2023-10-09T03:39:05;101323.34;;;11.69;75.29
29825;BME280;16713;52.916;12.834;2023-10-09T03:41:44;101329.63;;;11.70;75.07
29825;BME280;16713;52.916;12.834;2023-10-09T03:44:14;101313.38;;;11.65;74.94
29825;BME280;16713;52.916;12.834;2023-10-09T03:46:40;101298.94;;;11.68;75.25
29825;BME280;16713;52.916;12.834;2023-10-09T03:49:10;101295.75;;;11.66;75.72
29825;BME280;16713;52.916;12.834;2023-10-09T03:51:37;101306.41;;;11.67;75.48
29825;BME280;16713;52.916;12.834;2023-10-09T03:54:04;101281.66;;;11.67;75.57
29825;BME280;16713;52.916;12.834;2023-10-09T03:56:34;101263.69;;;11.70;75.95
29825;BME280;16713;52.916;12.834;2023-10-09T03:59:01;101228.31;;;11.68;75.74
29825;BME280;16713;52.916;12.834;2023-10-09T04:01:31;101217.66;;;11.67;76.04
29825;BME280;16713;52.916;12.834;2023-10-09T04:04:06;101225.91;;;11.67;75.98
29825;BME280;16713;52.916;12.834;2023-10-09T04:06:36;101231.41;;;11.67;76.57
29825;BME280;16713;52.916;12.834;2023-10-09T04:09:04;101236.91;;;11.67;75.90
29825;BME280;16713;52.916;12.834;2023-10-09T04:11:54;101230.69;;;11.70;75.94
29825;BME280;16713;52.916;12.834;2023-10-09T04:14:36;101231.88;;;11.69;75.77
29825;BME280;16713;52.916;12.834;2023-10-09T04:17:13;101240.56;;;11.71;76.53
29825;BME280;16713;52.916;12.834;2023-10-09T04:19:48;101241.59;;;11.66;75.91
29825;BME280;16713;52.916;12.834;2023-10-09T04:22:38;101245.72;;;11.72;75.73
29825;BME280;16713;52.916;12.834;2023-10-09T04:25:08;101236.66;;;11.72;76.33
29825;BME280;16713;52.916;12.834;2023-10-09T04:27:41;101231.88;;;11.69;76.48
29825;BME280;16713;52.916;12.834;2023-10-09T04:30:07;101230.00;;;11.73;75.98
29825;BME280;16713;52.916;12.834;2023-10-09T04:32:34;101226.00;;;11.70;76.20
29825;BME280;16713;52.916;12.834;2023-10-09T04:35:01;101224.44;;;11.69;75.51
29825;BME280;16713;52.916;12.834;2023-10-09T04:37:48;101214.22;;;11.70;75.67
29825;BME280;16713;52.916;12.834;2023-10-09T04:40:31;101218.81;;;11.66;75.73
29825;BME280;16713;52.916;12.834;2023-10-09T04:43:14;101216.63;;;11.71;75.59
29825;BME280;16713;52.916;12.834;2023-10-09T04:45:47;101218.81;;;11.66;76.07
29825;BME280;16713;52.916;12.834;2023-10-09T04:48:32;101214.91;;;11.67;75.30
29825;BME280;16713;52.916;12.834;2023-10-09T04:50:59;101208.25;;;11.68;76.17
29825;BME280;16713;52.916;12.834;2023-10-09T04:53:58;101207.13;;;11.69;75.59
29825;BME280;16713;52.916;12.834;2023-10-09T04:56:40;101205.50;;;11.68;75.86
29825;BME280;16713;52.916;12.834;2023-10-09T04:59:19;101199.25;;;11.67;75.76
29825;BME280;16713;52.916;12.834;2023-10-09T05:01:46;101197.38;;;11.71;75.53
29825;BME280;16713;52.916;12.834;2023-10-09T05:04:24;101198.53;;;11.70;75.56
29825;BME280;16713;52.916;12.834;2023-10-09T05:07:07;101210.22;;;11.67;75.73
29825;BME280;16713;52.916;12.834;2023-10-09T05:10:12;101209.31;;;11.63;75.26
29825;BME280;16713;52.916;12.834;2023-10-09T05:12:43;101215.88;;;11.59;75.10
29825;BME280;16713;52.916;12.834;2023-10-09T05:15:14;101207.28;;;11.60;75.78
29825;BME280;16713;52.916;12.834;2023-10-09T05:17:40;101198.56;;;11.58;76.17
29825;BME280;16713;52.916;12.834;2023-10-09T05:20:18;101199.84;;;11.61;76.30
29825;BME280;16713;52.916;12.834;2023-10-09T05:22:53;101205.53;;;11.56;76.05
29825;BME280;16713;52.916;12.834;2023-10-09T05:25:26;101202.50;;;11.45;76.33
29825;BME280;16713;52.916;12.834;2023-10-09T05:28:11;101194.44;;;11.52;76.22
29825;BME280;16713;52.916;12.834;2023-10-09T05:30:56;101194.78;;;11.51;76.11
29825;BME280;16713;52.916;12.834;2023-10-09T05:33:35;101194.00;;;11.50;75.99
29825;BME280;16713;52.916;12.834;2023-10-09T05:36:04;101190.00;;;11.48;76.03
29825;BME280;16713;52.916;12.834;2023-10-09T05:38:41;101184.63;;;11.51;76.13
29825;BME280;16713;52.916;12.834;2023-10-09T05:41:12;101191.59;;;11.49;76.10
29825;BME280;16713;52.916;12.834;2023-10-09T05:44:13;101188.25;;;11.55;76.55
29825;BME280;16713;52.916;12.834;2023-10-09T05:46:58;101185.50;;;11.55;76.55
29825;BME280;16713;52.916;12.834;2023-10-09T05:49:43;101172.13;;;11.54;76.66
29825;BME280;16713;52.916;12.834;2023-10-09T05:52:13;101171.78;;;11.55;76.65
29825;BME280;16713;52.916;12.834;2023-10-09T05:54:58;101174.09;;;11.53;76.66
29825;BME280;16713;52.916;12.834;2023-10-09T05:57:36;101179.78;;;11.60;76.14
29825;BME280;16713;52.916;12.834;2023-10-09T06:00:37;101175.91;;;11.61;76.26
29825;BME280;16713;52.916;12.834;2023-10-09T06:03:22;101171.56;;;11.60;76.51
29825;BME280;16713;52.916;12.834;2023-10-09T06:05:53;101162.97;;;11.62;76.06
29825;BME280;16713;52.916;12.834;2023-10-09T06:08:19;101170.63;;;11.56;76.15
29825;BME280;16713;52.916;12.834;2023-10-09T06:11:05;101184.22;;;11.65;76.49
29825;BME280;16713;52.916;12.834;2023-10-09T06:13:49;101177.16;;;11.64;76.39
29825;BME280;16713;52.916;12.834;2023-10-09T06:16:29;101177.59;;;11.66;76.26
29825;BME280;16713;52.916;12.834;2023-10-09T06:19:08;101172.53;;;11.68;76.49
29825;BME280;16713;52.916;12.834;2023-10-09T06:21:39;101165.47;;;11.67;77.12
29825;BME280;16713;52.916;12.834;2023-10-09T06:24:25;101173.00;;;11.70;77.08
29825;BME280;16713;52.916;12.834;2023-10-09T06:26:59;101174.50;;;11.67;77.27
29825;BME280;16713;52.916;12.834;2023-10-09T06:29:26;101168.41;;;11.74;76.40
29825;BME280;16713;52.916;12.834;2023-10-09T06:32:02;101162.34;;;11.68;77.13
29825;BME280;16713;52.916;12.834;2023-10-09T06:37:23;101150.41;;;11.76;76.81
29825;BME280;16713;52.916;12.834;2023-10-09T06:39:53;101138.59;;;11.76;76.46
29825;BME280;16713;52.916;12.834;2023-10-09T06:42:20;101136.66;;;11.76;76.68
29825;BME280;16713;52.916;12.834;2023-10-09T06:45:05;101131.97;;;11.77;77.12
29825;BME280;16713;52.916;12.834;2023-10-09T06:47:35;101137.13;;;11.78;76.44
29825;BME280;16713;52.916;12.834;2023-10-09T06:50:09;101145.00;;;11.80;77.12
29825;BME280;16713;52.916;12.834;2023-10-09T06:52:54;101151.31;;;11.80;76.82
29825;BME280;16713;52.916;12.834;2023-10-09T06:55:23;101147.88;;;11.83;76.70
29825;BME280;16713;52.916;12.834;2023-10-09T06:58:00;101140.84;;;11.86;77.38
29825;BME280;16713;52.916;12.834;2023-10-09T07:00:39;101154.22;;;11.87;77.13
29825;BME280;16713;52.916;12.834;2023-10-09T07:03:20;101150.72;;;11.87;76.56
29825;BME280;16713;52.916;12.834;2023-10-09T07:06:05;101153.00;;;11.85;77.03
29825;BME280;16713;52.916;12.834;2023-10-09T07:08:36;101150.72;;;11.87;76.91
29825;BME280;16713;52.916;12.834;2023-10-09T07:11:06;101144.50;;;11.90;76.86
29825;BME280;16713;52.916;12.834;2023-10-09T07:13:56;101150.72;;;11.87;76.91
29825;BME280;16713;52.916;12.834;2023-10-09T07:16:24;101144.84;;;11.88;77.41
29825;BME280;16713;52.916;12.834;2023-10-09T07:18:55;101146.44;;;11.89;77.00
29825;BME280;16713;52.916;12.834;2023-10-09T07:21:36;101147.25;;;11.90;77.18
29825;BME280;16713;52.916;12.834;2023-10-09T07:24:05;101143.34;;;11.91;77.59
29825;BME280;16713;52.916;12.834;2023-10-09T07:26:41;101152.03;;;11.93;77.02
29825;BME280;16713;52.916;12.834;2023-10-09T07:29:13;101159.47;;;11.92;76.43
29825;BME280;16713;52.916;12.834;2023-10-09T07:31:42;101156.63;;;11.89;76.43
29825;BME280;16713;52.916;12.834;2023-10-09T07:34:14;101167.81;;;11.96;77.03
29825;BME280;16713;52.916;12.834;2023-10-09T07:37:19;101169.88;;;11.99;77.20
29825;BME280;16713;52.916;12.834;2023-10-09T07:39:46;101164.81;;;12.01;77.40
29825;BME280;16713;52.916;12.834;2023-10-09T07:42:23;101170.31;;;12.01;77.19
29825;BME280;16713;52.916;12.834;2023-10-09T07:45:00;101181.66;;;12.00;76.73
29825;BME280;16713;52.916;12.834;2023-10-09T07:47:38;101195.78;;;11.98;76.71
29825;BME280;16713;52.916;12.834;2023-10-09T07:50:23;101199.75;;;12.01;76.55
29825;BME280;16713;52.916;12.834;2023-10-09T07:52:50;101196.84;;;11.93;76.64
29825;BME280;16713;52.916;12.834;2023-10-09T07:55:17;101197.25;;;11.95;76.88
29825;BME280;16713;52.916;12.834;2023-10-09T07:57:55;101193.72;;;11.95;76.66
29825;BME280;16713;52.916;12.834;2023-10-09T08:00:22;101192.72;;;11.87;77.02
29825;BME280;16713;52.916;12.834;2023-10-09T08:03:08;101197.44;;;11.87;77.19
29825;BME280;16713;52.916;12.834;2023-10-09T08:05:51;101195.13;;;11.89;76.91
29825;BME280;16713;52.916;12.834;2023-10-09T08:08:19;101192.72;;;11.87;77.30
29825;BME280;16713;52.916;12.834;2023-10-09T08:11:07;101183.69;;;11.87;76.42
29825;BME280;16713;52.916;12.834;2023-10-09T08:13:51;101181.38;;;11.89;77.72
29825;BME280;16713;52.916;12.834;2023-10-09T08:16:27;101166.03;;;11.88;76.66
29825;BME280;16713;52.916;12.834;2023-10-09T08:19:03;101170.38;;;11.89;77.53
29825;BME280;16713;52.916;12.834;2023-10-09T08:21:49;101167.72;;;11.92;77.52
29825;BME280;16713;52.916;12.834;2023-10-09T08:24:34;101163.84;;;11.93;77.23
29825;BME280;16713;52.916;12.834;2023-10-09T08:27:19;101166.66;;;11.97;76.96
29825;BME280;16713;52.916;12.834;2023-10-09T08:29:58;101170.69;;;12.00;76.93
29825;BME280;16713;52.916;12.834;2023-10-09T08:32:47;101175.81;;;12.01;77.01
29825;BME280;16713;52.916;12.834;2023-10-09T08:38:13;101166.50;;;12.06;77.16
29825;BME280;16713;52.916;12.834;2023-10-09T08:40:40;101160.66;;;12.07;77.19
29825;BME280;16713;52.916;12.834;2023-10-09T08:43:08;101156.41;;;12.10;76.93
29825;BME280;16713;52.916;12.834;2023-10-09T08:45:38;101164.72;;;12.13;77.79
29825;BME280;16713;52.916;12.834;2023-10-09T08:48:08;101165.53;;;12.14;77.04
29825;BME280;16713;52.916;12.834;2023-10-09T08:50:47;101175.38;;;12.15;77.52
29825;BME280;16713;52.916;12.834;2023-10-09T08:53:14;101177.44;;;12.18;77.31
29825;BME280;16713;52.916;12.834;2023-10-09T08:55:42;101178.22;;;12.18;77.45
29825;BME280;16713;52.916;12.834;2023-10-09T08:58:09;101185.69;;;12.18;76.68
29825;BME280;16713;52.916;12.834;2023-10-09T09:00:51;101181.78;;;12.19;77.68
29825;BME280;16713;52.916;12.834;2023-10-09T09:03:18;101181.78;;;12.19;77.64
29825;BME280;16713;52.916;12.834;2023-10-09T09:05:46;101178.69;;;12.20;76.86
29825;BME280;16713;52.916;12.834;2023-10-09T09:08:22;101186.13;;;12.20;76.60
29825;BME280;16713;52.916;12.834;2023-10-09T09:13:26;101194.72;;;12.18;76.56
29825;BME280;16713;52.916;12.834;2023-10-09T09:15:58;101181.78;;;12.19;77.02
29825;BME280;16713;52.916;12.834;2023-10-09T09:18:24;101180.63;;;12.20;76.41
29825;BME280;16713;52.916;12.834;2023-10-09T09:20:57;101189.66;;;12.20;76.80
29825;BME280;16713;52.916;12.834;2023-10-09T09:23:24;101186.47;;;12.18;77.33
29825;BME280;16713;52.916;12.834;2023-10-09T09:25:52;101190.03;;;12.19;77.45
29825;BME280;16713;52.916;12.834;2023-10-09T09:28:25;101178.22;;;12.18;77.39
29825;BME280;16713;52.916;12.834;2023-10-09T09:30:53;101186.13;;;12.20;77.06
29825;BME280;16713;52.916;12.834;2023-10-09T09:33:24;101197.03;;;12.16;76.49
29825;BME280;16713;52.916;12.834;2023-10-09T09:38:25;101195.97;;;12.21;77.41
29825;BME280;16713;52.916;12.834;2023-10-09T09:40:56;101191.25;;;12.21;77.13
29825;BME280;16713;52.916;12.834;2023-10-09T09:43:23;101186.22;;;12.23;76.95
29825;BME280;16713;52.916;12.834;2023-10-09T09:45:52;101182.22;;;12.21;76.51
29825;BME280;16713;52.916;12.834;2023-10-09T09:48:19;101188.97;;;12.23;76.63
29825;BME280;16713;52.916;12.834;2023-10-09T09:50:45;101176.78;;;12.24;76.88
29825;BME280;16713;52.916;12.834;2023-10-09T09:53:14;101181.16;;;12.25;76.60
29825;BME280;16713;52.916;12.834;2023-10-09T09:55:53;101166.69;;;12.28;77.53
29825;BME280;16713;52.916;12.834;2023-10-09T09:58:24;101178.16;;;12.30;76.63
29825;BME280;16713;52.916;12.834;2023-10-09T10:00:53;101170.31;;;12.32;76.60
29825;BME280;16713;52.916;12.834;2023-10-09T10:05:49;101170.41;;;12.36;76.67
29825;BME280;16713;52.916;12.834;2023-10-09T10:08:20;101175.19;;;12.39;77.09
29825;BME280;16713;52.916;12.834;2023-10-09T10:10:47;101172.09;;;12.40;75.53
29825;BME280;16713;52.916;12.834;2023-10-09T10:13:16;101161.91;;;12.41;76.59
29825;BME280;16713;52.916;12.834;2023-10-09T10:16:00;101160.06;;;12.45;75.97
29825;BME280;16713;52.916;12.834;2023-10-09T10:21:36;101157.44;;;12.52;76.25
29825;BME280;16713;52.916;12.834;2023-10-09T10:27:17;101151.69;;;12.57;76.42
29825;BME280;16713;52.916;12.834;2023-10-09T10:30:33;101146.63;;;12.59;76.26
29825;BME280;16713;52.916;12.834;2023-10-09T10:33:00;101142.28;;;12.58;76.66
29825;BME280;16713;52.916;12.834;2023-10-09T10:35:36;101152.13;;;12.59;75.36
29825;BME280;16713;52.916;12.834;2023-10-09T10:41:07;101145.53;;;12.63;75.54
29825;BME280;16713;52.916;12.834;2023-10-09T10:43:37;101151.53;;;12.65;75.87
29825;BME280;16713;52.916;12.834;2023-10-09T10:46:18;101151.97;;;12.67;75.22
29825;BME280;16713;52.916;12.834;2023-10-09T10:48:59;101154.38;;;12.69;75.72
29825;BME280;16713;52.916;12.834;2023-10-09T10:51:26;101159.16;;;12.72;75.12
29825;BME280;16713;52.916;12.834;2023-10-09T10:54:01;101147.78;;;12.73;76.19
29825;BME280;16713;52.916;12.834;2023-10-09T10:56:48;101145.84;;;12.74;75.08
29825;BME280;16713;52.916;12.834;2023-10-09T10:59:15;101139.66;;;12.80;76.37
29825;BME280;16713;52.916;12.834;2023-10-09T11:01:49;101142.59;;;12.87;75.84
29825;BME280;16713;52.916;12.834;2023-10-09T11:04:40;101134.06;;;12.92;75.78
29825;BME280;16713;52.916;12.834;2023-10-09T11:07:10;101130.13;;;12.93;75.54
29825;BME280;16713;52.916;12.834;2023-10-09T11:09:52;101137.63;;;12.93;75.10
29825;BME280;16713;52.916;12.834;2023-10-09T11:12:28;101136.09;;;12.95;74.88
29825;BME280;16713;52.916;12.834;2023-10-09T11:15:13;101115.31;;;12.98;75.46
29825;BME280;16713;52.916;12.834;2023-10-09T11:18:04;101126.31;;;12.98;76.67
29825;BME280;16713;52.916;12.834;2023-10-09T11:20:35;101124.34;;;12.98;77.18
29825;BME280;16713;52.916;12.834;2023-10-09T11:23:02;101125.53;;;12.97;75.88
29825;BME280;16713;52.916;12.834;2023-10-09T11:25:43;101126.00;;;13.03;76.41
29825;BME280;16713;52.916;12.834;2023-10-09T11:28:21;101115.38;;;13.01;76.30
29825;BME280;16713;52.916;12.834;2023-10-09T11:31:17;101116.63;;;13.04;76.51
29825;BME280;16713;52.916;12.834;2023-10-09T11:33:47;101119.81;;;13.06;75.81
29825;BME280;16713;52.916;12.834;2023-10-09T11:36:23;101120.59;;;13.06;76.19
29825;BME280;16713;52.916;12.834;2023-10-09T11:38:58;101115.09;;;13.06;76.10
29825;BME280;16713;52.916;12.834;2023-10-09T11:41:44;101121.41;;;13.07;76.13
29825;BME280;16713;52.916;12.834;2023-10-09T11:44:10;101115.53;;;13.08;76.71
29825;BME280;16713;52.916;12.834;2023-10-09T11:47:00;101114.81;;;13.11;76.66
29825;BME280;16713;52.916;12.834;2023-10-09T11:49:52;101118.34;;;13.12;75.79
29825;BME280;16713;52.916;12.834;2023-10-09T11:52:54;101118.00;;;13.13;76.35
29825;BME280;16713;52.916;12.834;2023-10-09T11:55:23;101118.81;;;13.14;76.45
29825;BME280;16713;52.916;12.834;2023-10-09T11:57:51;101120.03;;;13.16;76.21
29825;BME280;16713;52.916;12.834;2023-10-09T12:00:17;101123.59;;;13.17;76.47
29825;BME280;16713;52.916;12.834;2023-10-09T12:02:57;101116.53;;;13.19;76.21
29825;BME280;16713;52.916;12.834;2023-10-09T12:05:31;101114.16;;;13.18;76.63
29825;BME280;16713;52.916;12.834;2023-10-09T12:07:58;101108.19;;;13.16;75.72
29825;BME280;16713;52.916;12.834;2023-10-09T12:10:27;101116.91;;;13.18;76.11
29825;BME280;16713;52.916;12.834;2023-10-09T12:12:55;101109.84;;;13.20;76.64
29825;BME280;16713;52.916;12.834;2023-10-09T12:15:24;101114.59;;;13.20;76.37
29825;BME280;16713;52.916;12.834;2023-10-09T12:17:51;101122.84;;;13.20;74.58
29825;BME280;16713;52.916;12.834;2023-10-09T12:20:19;101126.06;;;13.22;75.91
29825;BME280;16713;52.916;12.834;2023-10-09T12:23:02;101114.69;;;13.23;75.63
29825;BME280;16713;52.916;12.834;2023-10-09T12:25:33;101126.91;;;13.26;76.65
29825;BME280;16713;52.916;12.834;2023-10-09T12:28:02;101118.66;;;13.26;75.08
29825;BME280;16713;52.916;12.834;2023-10-09T12:30:29;101115.53;;;13.27;75.63
29825;BME280;16713;52.916;12.834;2023-10-09T12:32:57;101122.63;;;13.28;76.78
29825;BME280;16713;52.916;12.834;2023-10-09T12:35:24;101118.72;;;13.29;75.78
29825;BME280;16713;52.916;12.834;2023-10-09T12:37:54;101124.22;;;13.29;75.22
29825;BME280;16713;52.916;12.834;2023-10-09T12:40:22;101116.41;;;13.31;76.23
29825;BME280;16713;52.916;12.834;2023-10-09T12:42:55;101108.16;;;13.31;74.62
29825;BME280;16713;52.916;12.834;2023-10-09T12:45:25;101102.63;;;13.31;74.90
29825;BME280;16713;52.916;12.834;2023-10-09T12:47:55;101116.06;;;13.33;75.20
29825;BME280;16713;52.916;12.834;2023-10-09T12:50:26;101111.69;;;13.32;75.60
29825;BME280;16713;52.916;12.834;2023-10-09T12:52:59;101098.28;;;13.30;75.23
29825;BME280;16713;52.916;12.834;2023-10-09T12:55:28;101106.16;;;13.32;75.40
29825;BME280;16713;52.916;12.834;2023-10-09T12:58:01;101112.84;;;13.31;76.58
29825;BME280;16713;52.916;12.834;2023-10-09T13:00:35;101107.34;;;13.31;76.54
29825;BME280;16713;52.916;12.834;2023-10-09T13:03:04;101112.84;;;13.31;76.53
29825;BME280;16713;52.916;12.834;2023-10-09T13:05:40;101117.56;;;13.30;76.44
29825;BME280;16713;52.916;12.834;2023-10-09T13:08:21;101128.56;;;13.30;75.16
29825;BME280;16713;52.916;12.834;2023-10-09T13:10:49;101124.22;;;13.29;76.06
29825;BME280;16713;52.916;12.834;2023-10-09T13:13:26;101133.63;;;13.28;76.11
29825;BME280;16713;52.916;12.834;2023-10-09T13:16:03;101125.75;;;13.27;75.92
29825;BME280;16713;52.916;12.834;2023-10-09T13:18:32;101118.28;;;13.27;76.18
29825;BME280;16713;52.916;12.834;2023-10-09T13:21:01;101117.47;;;13.27;76.30
29825;BME280;16713;52.916;12.834;2023-10-09T13:23:30;101114.72;;;13.27;77.23
29825;BME280;16713;52.916;12.834;2023-10-09T13:26:06;101115.09;;;13.25;77.15
29825;BME280;16713;52.916;12.834;2023-10-09T13:28:58;101109.56;;;13.25;76.57
29825;BME280;16713;52.916;12.834;2023-10-09T13:31:26;101098.19;;;13.27;76.21
29825;BME280;16713;52.916;12.834;2023-10-09T13:33:53;101091.91;;;13.26;76.03
29825;BME280;16713;52.916;12.834;2023-10-09T13:36:25;101097.41;;;13.26;76.78
29825;BME280;16713;52.916;12.834;2023-10-09T13:39:06;101096.25;;;13.27;75.52
29825;BME280;16713;52.916;12.834;2023-10-09T13:41:49;101099.44;;;13.29;76.44